TAF Text Data
IDs:
Format:
Raw Decoded Include METAR

Data at: 0125 UTC 21 Sep 2021

KORF 202331Z 2100/2124 07009KT P6SM SCT025 BKN040
  TEMPO 2100/2102 BKN025
  FM210300 08008KT P6SM BKN250
  FM211600 09010KT P6SM BKN050